KUIN/UIN METAR and TAF weather

Enter ICAO airport designator
Station Type Date Time Source
KUIN METAR 2020/01/19 13:54 UTC NOAA

KUIN 191354Z AUTO 30017G23KT 10SM CLR M16/M21 A3044 RMK AO2 PK WND 30026/1333 SLP323 T11561206 $


Station Type Date Time Source
KUIN Decoded METAR 2020/01/19 13:54 UTC NOAA

QUINCY MUNI. BALDWIN FIELD, IL, United States (KUIN) 39-56N 091-12W
Jan 19, 2020 - 08:54 AM EST / 2020.01.19 1354 UTC
Wind: from the WNW (300 degrees) at 20 MPH (17 KT) gusting to 26 MPH (23 KT):0
Visibility: 10 mile(s):0
Sky conditions: clear
Temperature: 3.9 F (-15.6 C)
Windchill: -16 F (-27 C):2
Dew Point: -5.1 F (-20.6 C)
Relative Humidity: 65%
Pressure (altimeter): 30.44 in. Hg (1030 hPa)
ob: KUIN 191354Z AUTO 30017G23KT 10SM CLR M16/M21 A3044 RMK AO2 PK WND 30026/1333 SLP323 T11561206
cycle: 14

Station Type Date Time Source
KUIN TAF 2020/01/19 12:22 UTC NOAA

TAF KUIN 191120Z 1912/2012 30016G26KT P6SM FEW250
FM191700 30015G25KT P6SM BKN024
FM200300 32010G16KT P6SM BKN060
FM200500 32009KT P6SM SCT150

Example: see airport list